Flight Track Log - Related Links

Times and Time Zones

All times are in EST time to prevent confusion due to time zone crossing. See the CSN3546 flight status page for this flight to view local times or setup timezone preferences in your user account.

Time Position Orientation Groundspeed Altitude Reporting Facility
EST Latitude Longitude Course Direction KTS MPH feet Rate Location/Type
Wed 09:40:00 AM 28.7676 115.8512 204° Southwest  Level Estimated
Wed 09:41:00 AM 28.6702 115.8026 204° Southwest  Level Estimated
Wed 09:42:00 AM 28.5727 115.7540 204° Southwest  Level Estimated
Wed 09:43:00 AM 28.4753 115.7055 204° Southwest  Level Estimated
Wed 09:44:00 AM 28.3778 115.6571 204° Southwest  Level Estimated
Wed 09:45:00 AM 28.2803 115.6088 204° Southwest  Level Estimated
Wed 09:46:00 AM 28.1828 115.5606 204° Southwest  Level Estimated
Wed 09:47:00 AM 28.0852 115.5124 204° Southwest  Level Estimated
Wed 09:48:00 AM 27.9877 115.4644 204° Southwest  Level Estimated
Wed 09:49:00 AM 27.8901 115.4164 203° Southwest  Level Estimated
Wed 09:50:00 AM 27.7925 115.3685 203° Southwest  Level Estimated
Wed 09:51:00 AM 27.6950 115.3207 203° Southwest  Level Estimated
Wed 09:52:00 AM 27.5973 115.2730 203° Southwest  Level Estimated
Wed 09:53:00 AM 27.4997 115.2254 203° Southwest  Level Estimated
Wed 09:54:00 AM 27.4021 115.1779 203° Southwest  Level Estimated
Wed 09:55:00 AM 27.3044 115.1304 203° Southwest  Level Estimated
Wed 09:56:00 AM 27.2067 115.0831 203° Southwest  Level Estimated
Wed 09:57:00 AM 27.1090 115.0358 203° Southwest  Level Estimated
Wed 09:58:00 AM 27.0113 114.9886 203° Southwest  Level Estimated
Wed 09:59:00 AM 26.9136 114.9414 203° Southwest  Level Estimated
Wed 10:00:00 AM 26.8159 114.8944 203° Southwest  Level Estimated
Wed 10:01:00 AM 26.7181 114.8474 203° Southwest  Level Estimated
Wed 10:02:00 AM 26.6203 114.8006 203° Southwest  Level Estimated
Wed 10:03:00 AM 26.5226 114.7538 203° Southwest  Level Estimated
Wed 10:04:00 AM 26.4248 114.7070 203° Southwest  Level Estimated
Wed 10:05:00 AM 26.3269 114.6604 203° Southwest  Level Estimated
Wed 10:06:00 AM 26.2291 114.6138 203° Southwest  Level Estimated
Wed 10:07:00 AM 26.1313 114.5674 203° Southwest  Level Estimated
Wed 10:08:00 AM 26.0334 114.5210 203° Southwest  Level Estimated
Wed 10:09:00 AM 25.9355 114.4746 203° Southwest  Level Estimated
Wed 10:10:00 AM 25.8376 114.4284 203° Southwest  Level Estimated
Wed 10:11:00 AM 25.7397 114.3822 203° Southwest  Level Estimated
Wed 10:12:00 AM 25.6418 114.3361 203° Southwest  Level Estimated
Wed 10:13:00 AM 25.5439 114.2901 203° Southwest  Level Estimated
Wed 10:14:00 AM 25.4459 114.2441 203° Southwest  Level Estimated
Wed 10:15:00 AM 25.3480 114.1982 203° Southwest  Level Estimated
Wed 10:16:00 AM 25.2500 114.1525 203° Southwest  Level Estimated
Wed 10:17:00 AM 25.1520 114.1067 203° Southwest  Level Estimated
Wed 10:18:00 AM 25.0540 114.0611 203° Southwest  Level Estimated
Wed 10:19:00 AM 24.9560 114.0155 203° Southwest  Level Estimated
Wed 10:20:00 AM 24.8882 113.9840 203° Southwest  Level Estimated
Wed 10:21:00 AM 24.8204 113.9526 203° Southwest  Level Estimated
Wed 10:22:00 AM 24.7526 113.9212 203° Southwest  Level Estimated
Wed 10:23:00 AM 24.6848 113.8898 203° Southwest  Level Estimated
Wed 10:24:00 AM 24.6170 113.8585 203° Southwest  Level Estimated
Wed 10:25:00 AM 24.5492 113.8272 203° Southwest  Level Estimated
Wed 10:26:00 AM 24.4814 113.7959 203° Southwest  Level Estimated
Wed 10:27:00 AM 24.4136 113.7647 203° Southwest  Level Estimated
Wed 10:28:00 AM 24.3458 113.7335 203° Southwest  Level Estimated
Wed 10:29:00 AM 24.2779 113.7023 203° Southwest  Level Estimated
Wed 10:30:00 AM 24.2101 113.6712 203° Southwest  Level Estimated
Wed 10:31:00 AM 24.1422 113.6401 203° Southwest  Level Estimated
Wed 10:32:00 AM 24.0744 113.6090 203° Southwest  Level Estimated
Wed 10:33:00 AM 24.0065 113.5780 203° Southwest  Level Estimated
Wed 10:34:00 AM 23.9387 113.5470 203° Southwest  Level Estimated
Wed 10:35:00 AM 23.8708 113.5161 203° Southwest  Level Estimated
Wed 10:36:00 AM 23.8029 113.4851 203° Southwest  Level Estimated
Wed 10:37:00 AM 23.7350 113.4542 203° Southwest  Level Estimated
Wed 10:38:00 AM 23.6672 113.4233 203° Southwest  Level Estimated
Wed 10:39:00 AM 23.5993 113.3925 203° Southwest  Level Estimated
Wed 10:40:00 AM 23.5314 113.3617 203° Southwest  Level Estimated
Wed 10:41:00 AM 23.4634 113.3309 203° Southwest  Level Estimated
Wed 10:42:00 AM 23.3955 113.3002 203° Southwest  Level Estimated
Wed 10:43:00 AM 23.3924 113.2988 203° Southwest  Level Estimated
Wed 10:44:00 AM 23.3924 113.2988 223° Southwest  Level Estimated
Wed 10:45:00 AM 23.3924 113.2988 223° Southwest  Level Estimated
Wed 10:46:00 AM 23.3924 113.2988 223° Southwest  Level Estimated
Wed 10:47:00 AM 23.3924 113.2988 223° Southwest  Level Estimated
Wed 10:48:00 AM 23.3924 113.2988 223° Southwest  Level Estimated
Wed 10:49:00 AM 23.3924 113.2988 223° Southwest  Level Estimated
Wed 10:50:00 AM 23.3924 113.2988 223° Southwest  Level Estimated
Wed 10:51:00 AM 23.3924 113.2988 223° Southwest  Level Estimated
Wed 10:52:00 AM 23.3924 113.2988 223° Southwest  Level Estimated
Wed 10:53:00 AM 23.3924 113.2988 223° Southwest  Level Estimated
Wed 10:54:00 AM 23.3924 113.2988 223° Southwest  Level Estimated
Wed 10:55:00 AM 23.3924 113.2988 223° Southwest  Level Estimated
Wed 10:56:00 AM 23.3924 113.2988 223° Southwest  Level Estimated
Wed 10:57:00 AM 23.3924 113.2988 223° Southwest  Level Estimated
Wed 10:58:00 AM 23.3924 113.2988 223° Southwest  Level Estimated
Wed 10:59:00 AM 23.3924 113.2988 223° Southwest  Level Estimated
Wed 11:00:00 AM 23.3924 113.2988 223° Southwest  Level Estimated
Wed 11:01:00 AM 23.3924 113.2988 223° Southwest  Level Estimated

Login

Don't have an account? Register now (free) for customized features, flight alerts, and more!